Main page
METAR-TAF:

METAR-TAF

Airports :

Riyadh, Saudi Arabia

King Khalid International Airport

latitude: 24-56N, longitude: 046-43E, elevation: 614 m

Current weather observation

The report was made 51 minutes ago, at 09:00 UTC
Wind 14 kt from the West/Southwest
Temperature 35°C
Humidity 8%
Pressure 1014 hPa
Visibility: 6000 m

METAR: OERK 220900Z 25014KT 6000 NSC 35/M04 Q1014 NOSIG

Time: 12:51 (09:51 UTC)

Forecast

The report was made 5 hours and 51 minutes ago, at 04:00 UTC
Forecast valid from 22 at 06 UTC to 23 at 12 UTC
Wind 6 kt from the West/Southwest with gusts up to 16 kt
Visibility: 7000 m
Clear sky
Temporary
from 22 at 06 UTC to 22 at 12 UTC
Visibility: 4000 m
widespread dust, Blowing dust
Becoming
from 22 at 18 UTC to 22 at 20 UTC
Wind 3 kt from variable directions

TAF: OERK 220400Z 2206/2312 24006G16KT 7000 SKC TEMPO 2206/2212 4000 DU BLDU BECMG 2218/2220 VRB03KT

Weather observations and forecasts of more than 4000 airports (METAR and TAF reports).

The available stations are represented by yellow and red dots on the map.

Hover mouse over dot to see the name of the station.

Then click to see weather observations and forecasts.

To change the map : click on the green buttons with a black cross to zoom in, on the green button with a dash to zoom out, or on the green arrows for adjacent maps.


METAR-TAF: